Time;durP1;ratioP1;P1;durP2;ratioP2;P2;SDS_P1;SDS_P2;PMS_P1;PMS_P2;Temp;Humidity;BMP_temperature;BMP_pressure;BME280_temperature;BME280_humidity;BME280_pressure;Samples;Min_cycle;Max_cycle;Signal;HPM_P1;HPM_P2
2022/01/13 00:00:19;;;;;;;32.60;15.65;;;;;;;;;;4993981;28;20199;-73
2022/01/13 00:02:47;;;;;;;29.92;17.45;;;;;;;;;;4993503;28;20590;-73
2022/01/13 00:05:17;;;;;;;23.85;15.60;;;;;;;;;;4993626;28;20315;-73
2022/01/13 00:07:57;;;;;;;26.40;15.50;;;;;;;;;;4993198;28;20192;-75
2022/01/13 00:10:25;;;;;;;28.98;14.10;;;;;;;;;;4993934;28;20295;-73
2022/01/13 00:12:58;;;;;;;29.85;16.58;;;;;;;;;;4993177;28;20228;-73
2022/01/13 00:15:38;;;;;;;29.13;14.30;;;;;;;;;;4993152;28;20191;-73
2022/01/13 00:18:12;;;;;;;26.30;14.90;;;;;;;;;;4993253;28;20199;-73
2022/01/13 00:21:10;;;;;;;29.52;13.98;;;;;;;;;;4992922;28;20221;-72
2022/01/13 00:23:44;;;;;;;31.00;13.85;;;;;;;;;;4993447;28;20284;-73
2022/01/13 00:26:22;;;;;;;22.42;13.88;;;;;;;;;;4979371;28;20221;-74
2022/01/13 00:28:51;;;;;;;26.73;15.65;;;;;;;;;;4974063;28;20570;-73
2022/01/13 00:31:23;;;;;;;28.77;15.75;;;;;;;;;;4987073;28;20193;-73
2022/01/13 00:33:54;;;;;;;25.58;15.73;;;;;;;;;;4993323;28;20283;-73
2022/01/13 00:36:22;;;;;;;29.50;15.60;;;;;;;;;;4979007;28;20194;-73
2022/01/13 00:38:51;;;;;;;31.95;17.98;;;;;;;;;;4973533;28;20672;-73
2022/01/13 00:41:19;;;;;;;30.65;15.60;;;;;;;;;;4986164;28;20239;-73
2022/01/13 00:43:48;;;;;;;31.83;15.52;;;;;;;;;;4981487;28;20189;-73
2022/01/13 00:46:21;;;;;;;32.13;16.05;;;;;;;;;;4973386;28;20225;-72
2022/01/13 00:48:48;;;;;;;34.83;16.85;;;;;;;;;;4983725;28;20271;-73
2022/01/13 00:51:16;;;;;;;26.58;12.93;;;;;;;;;;4993158;28;20197;-73
2022/01/13 00:53:44;;;;;;;27.58;16.42;;;;;;;;;;4982425;28;20245;-73
2022/01/13 00:56:14;;;;;;;28.20;13.45;;;;;;;;;;4973083;28;20252;-72
2022/01/13 00:58:43;;;;;;;27.00;15.13;;;;;;;;;;4973838;28;20293;-73
2022/01/13 01:01:10;;;;;;;35.65;18.35;;;;;;;;;;4973418;28;20225;-73
2022/01/13 01:03:38;;;;;;;22.60;13.88;;;;;;;;;;4980588;28;20184;-74
2022/01/13 01:06:06;;;;;;;21.90;12.45;;;;;;;;;;4992827;28;20228;-72
2022/01/13 01:08:37;;;;;;;28.08;15.10;;;;;;;;;;4985501;28;20186;-73
2022/01/13 01:11:05;;;;;;;25.80;14.98;;;;;;;;;;4978294;28;20669;-72
2022/01/13 01:13:39;;;;;;;28.58;16.60;;;;;;;;;;4992765;28;20201;-73
2022/01/13 01:16:09;;;;;;;36.25;17.25;;;;;;;;;;4987440;28;20193;-72
2022/01/13 01:18:49;;;;;;;29.13;17.38;;;;;;;;;;4973147;28;20197;-73
2022/01/13 01:21:37;;;;;;;29.38;15.82;;;;;;;;;;4980683;28;20213;-74
2022/01/13 01:24:31;;;;;;;32.70;17.40;;;;;;;;;;4992696;28;20544;-72
2022/01/13 01:27:04;;;;;;;29.02;16.27;;;;;;;;;;4991627;28;20197;-73
2022/01/13 01:29:39;;;;;;;32.95;17.17;;;;;;;;;;4992481;28;20244;-73
2022/01/13 01:32:10;;;;;;;29.65;15.70;;;;;;;;;;4992766;28;20546;-74
2022/01/13 01:34:54;;;;;;;36.90;16.67;;;;;;;;;;4992507;28;20185;-75
2022/01/13 01:37:23;;;;;;;33.33;16.77;;;;;;;;;;4992336;28;20199;-74
2022/01/13 01:39:51;;;;;;;32.20;17.35;;;;;;;;;;4992081;28;20627;-73
2022/01/13 01:42:19;;;;;;;35.47;18.80;;;;;;;;;;4992243;28;20206;-74
2022/01/13 01:44:52;;;;;;;36.25;17.90;;;;;;;;;;4991967;28;20220;-73
2022/01/13 01:47:22;;;;;;;44.10;17.75;;;;;;;;;;4992495;28;20196;-73
2022/01/13 01:49:53;;;;;;;31.92;15.43;;;;;;;;;;4992055;28;20204;-73
2022/01/13 01:52:21;;;;;;;31.65;16.67;;;;;;;;;;4992162;28;20189;-74
2022/01/13 01:54:52;;;;;;;34.58;17.50;;;;;;;;;;4991928;28;20281;-73
2022/01/13 01:57:20;;;;;;;35.83;18.98;;;;;;;;;;4992305;28;20189;-73
2022/01/13 01:59:50;;;;;;;36.90;18.48;;;;;;;;;;4991682;28;20197;-73
2022/01/13 02:02:18;;;;;;;32.85;16.33;;;;;;;;;;4992204;28;20204;-73
2022/01/13 02:04:48;;;;;;;35.92;16.80;;;;;;;;;;4991653;28;20303;-74
2022/01/13 02:07:15;;;;;;;32.15;15.85;;;;;;;;;;4995390;28;20197;-74
2022/01/13 02:09:52;;;;;;;30.13;16.17;;;;;;;;;;4995700;28;20578;-72
2022/01/13 02:12:31;;;;;;;32.35;18.20;;;;;;;;;;4995934;28;20192;-73
2022/01/13 02:15:16;;;;;;;31.63;16.85;;;;;;;;;;4995395;28;20200;-73
2022/01/13 02:17:44;;;;;;;34.30;18.83;;;;;;;;;;4995801;28;20562;-73
2022/01/13 02:20:23;;;;;;;30.10;15.27;;;;;;;;;;4995193;28;20204;-73
2022/01/13 02:22:51;;;;;;;30.95;15.02;;;;;;;;;;4975569;28;20189;-73
2022/01/13 02:25:19;;;;;;;35.58;19.33;;;;;;;;;;4976169;28;20224;-73
2022/01/13 02:27:47;;;;;;;27.23;15.68;;;;;;;;;;4966588;28;20233;-73
2022/01/13 02:30:21;;;;;;;28.27;13.75;;;;;;;;;;4956825;29;20198;-73
2022/01/13 02:32:48;;;;;;;30.10;14.68;;;;;;;;;;4964842;28;20186;-73
2022/01/13 02:35:16;;;;;;;27.17;13.32;;;;;;;;;;4975888;28;20546;-73
2022/01/13 02:37:45;;;;;;;27.42;14.65;;;;;;;;;;4967778;28;20554;-73
2022/01/13 02:40:13;;;;;;;39.22;17.80;;;;;;;;;;4956679;29;20209;-73
2022/01/13 02:42:41;;;;;;;22.05;13.18;;;;;;;;;;4962864;28;20193;-74
2022/01/13 02:45:16;;;;;;;28.33;16.40;;;;;;;;;;4974194;28;20221;-73
2022/01/13 02:48:00;;;;;;;29.48;14.98;;;;;;;;;;4968950;28;20246;-72
2022/01/13 02:50:28;;;;;;;27.38;13.73;;;;;;;;;;4962926;28;20232;-73
2022/01/13 02:52:57;;;;;;;32.28;16.13;;;;;;;;;;4975717;28;20197;-73
2022/01/13 02:55:25;;;;;;;33.63;15.07;;;;;;;;;;4969241;28;20740;-74
2022/01/13 02:57:53;;;;;;;31.17;15.52;;;;;;;;;;4956213;29;20198;-73
2022/01/13 03:00:23;;;;;;;26.27;14.25;;;;;;;;;;4961124;28;20189;-73
2022/01/13 03:02:54;;;;;;;30.13;14.45;;;;;;;;;;4975035;28;20280;-73
2022/01/13 03:05:22;;;;;;;28.17;14.85;;;;;;;;;;4970301;28;20222;-73
2022/01/13 03:07:52;;;;;;;27.90;14.55;;;;;;;;;;4955939;29;20209;-73
2022/01/13 03:10:22;;;;;;;29.77;14.13;;;;;;;;;;4959096;28;20204;-73
2022/01/13 03:12:50;;;;;;;24.63;14.27;;;;;;;;;;4975305;28;20201;-73
2022/01/13 03:15:18;;;;;;;25.52;13.85;;;;;;;;;;4972132;28;20225;-73
2022/01/13 03:17:46;;;;;;;25.15;12.93;;;;;;;;;;4954987;28;20198;-73
2022/01/13 03:20:14;;;;;;;29.88;14.73;;;;;;;;;;4974910;28;20212;-74
2022/01/13 03:22:43;;;;;;;31.45;14.25;;;;;;;;;;4994687;28;20228;-74
2022/01/13 03:25:12;;;;;;;25.63;15.15;;;;;;;;;;4993662;28;20690;-73
2022/01/13 03:27:41;;;;;;;27.83;13.23;;;;;;;;;;4994364;28;20208;-79
2022/01/13 03:30:11;;;;;;;30.27;14.80;;;;;;;;;;4975404;28;20202;-75
2022/01/13 03:32:43;;;;;;;25.17;13.55;;;;;;;;;;4975062;28;20194;-74
2022/01/13 03:35:11;;;;;;;26.85;13.35;;;;;;;;;;4992671;28;20205;-73
2022/01/13 03:37:39;;;;;;;24.25;13.27;;;;;;;;;;4994233;28;20244;-73
2022/01/13 03:40:10;;;;;;;25.45;12.80;;;;;;;;;;4977318;28;20186;-73
2022/01/13 03:42:41;;;;;;;27.52;13.73;;;;;;;;;;4974992;28;20197;-73
2022/01/13 03:45:11;;;;;;;23.40;14.45;;;;;;;;;;4990560;28;20193;-74
2022/01/13 03:47:39;;;;;;;34.22;15.48;;;;;;;;;;4979166;28;20277;-74
2022/01/13 03:50:09;;;;;;;30.60;14.82;;;;;;;;;;4974516;28;20244;-75
2022/01/13 03:52:54;;;;;;;32.83;13.80;;;;;;;;;;4988062;28;20189;-74
2022/01/13 03:55:52;;;;;;;26.75;13.55;;;;;;;;;;4993809;28;20251;-73
2022/01/13 03:58:57;;;;;;;28.88;13.10;;;;;;;;;;4993119;28;20208;-73
2022/01/13 04:01:51;;;;;;;31.58;13.63;;;;;;;;;;4993334;28;20200;-73
2022/01/13 04:04:19;;;;;;;28.98;16.23;;;;;;;;;;4994165;28;20197;-73
2022/01/13 04:06:47;;;;;;;30.85;15.75;;;;;;;;;;4993065;28;20213;-74
2022/01/13 04:09:32;;;;;;;30.40;14.40;;;;;;;;;;4993709;28;20599;-74
2022/01/13 04:12:04;;;;;;;30.38;14.57;;;;;;;;;;4993550;28;20675;-74
2022/01/13 04:14:39;;;;;;;30.02;15.57;;;;;;;;;;4993479;28;20200;-73
2022/01/13 04:17:24;;;;;;;32.55;14.82;;;;;;;;;;4993902;28;20192;-73
2022/01/13 04:19:54;;;;;;;27.88;14.70;;;;;;;;;;4993069;28;20251;-74
2022/01/13 04:22:29;;;;;;;28.35;14.98;;;;;;;;;;4993363;28;20281;-73
2022/01/13 04:24:57;;;;;;;30.90;17.63;;;;;;;;;;4993113;28;20236;-73
2022/01/13 04:27:26;;;;;;;28.27;13.88;;;;;;;;;;4993472;28;20229;-74
2022/01/13 04:30:22;;;;;;;30.10;14.82;;;;;;;;;;4992792;28;20221;-74
2022/01/13 04:33:04;;;;;;;27.67;13.48;;;;;;;;;;4993387;28;20189;-74
2022/01/13 04:35:32;;;;;;;26.55;14.88;;;;;;;;;;4993032;28;20198;-73
2022/01/13 04:38:00;;;;;;;34.67;16.92;;;;;;;;;;4993234;28;20259;-73
2022/01/13 04:40:28;;;;;;;25.55;13.73;;;;;;;;;;4992694;28;20636;-73
2022/01/13 04:42:56;;;;;;;32.05;16.67;;;;;;;;;;4992748;28;20521;-74
2022/01/13 04:45:28;;;;;;;32.10;15.00;;;;;;;;;;4992963;28;20280;-74
2022/01/13 04:47:58;;;;;;;30.02;15.20;;;;;;;;;;4992940;28;20283;-73
2022/01/13 04:50:30;;;;;;;28.48;13.60;;;;;;;;;;4992412;28;20189;-74
2022/01/13 04:52:58;;;;;;;32.47;17.70;;;;;;;;;;4992970;28;20279;-73
2022/01/13 04:55:30;;;;;;;36.58;15.77;;;;;;;;;;4992480;28;20196;-73
2022/01/13 04:57:59;;;;;;;26.33;14.02;;;;;;;;;;4992839;28;20585;-74
2022/01/13 05:00:28;;;;;;;30.60;14.82;;;;;;;;;;4992538;28;20236;-74
2022/01/13 05:02:57;;;;;;;30.85;14.93;;;;;;;;;;4992949;28;20196;-73
2022/01/13 05:05:25;;;;;;;31.40;15.65;;;;;;;;;;4992185;28;20250;-73
2022/01/13 05:07:55;;;;;;;32.58;14.98;;;;;;;;;;4992607;28;20247;-74
2022/01/13 05:10:23;;;;;;;29.48;15.50;;;;;;;;;;4992226;28;20312;-74
2022/01/13 05:12:55;;;;;;;32.97;15.55;;;;;;;;;;4992849;28;20200;-74
2022/01/13 05:15:25;;;;;;;32.00;17.13;;;;;;;;;;4992272;28;20193;-74
2022/01/13 05:20:47;;;;;;;33.35;14.88;;;;;;;;;;4991157;28;20264;-73
2022/01/13 05:23:16;;;;;;;28.77;13.32;;;;;;;;;;4992576;28;20300;-73
2022/01/13 05:25:46;;;;;;;40.97;17.20;;;;;;;;;;4983622;28;20263;-76
2022/01/13 05:28:18;;;;;;;36.83;13.80;;;;;;;;;;4973239;28;20201;-74
2022/01/13 05:30:48;;;;;;;25.70;13.88;;;;;;;;;;4980453;28;20189;-73
2022/01/13 05:33:16;;;;;;;24.17;13.52;;;;;;;;;;4976542;28;20225;-73
2022/01/13 05:35:46;;;;;;;37.72;13.20;;;;;;;;;;4972823;28;20196;-74
2022/01/13 05:38:14;;;;;;;25.38;12.32;;;;;;;;;;4982797;28;20251;-73
2022/01/13 05:40:42;;;;;;;29.17;14.73;;;;;;;;;;4991780;28;20224;-74
2022/01/13 05:43:15;;;;;;;23.95;12.85;;;;;;;;;;4982698;28;20197;-74
2022/01/13 05:45:43;;;;;;;29.52;14.57;;;;;;;;;;4972928;28;20190;-73
2022/01/13 05:48:11;;;;;;;30.88;14.02;;;;;;;;;;4980980;28;20614;-73
2022/01/13 05:50:39;;;;;;;27.95;13.27;;;;;;;;;;4972486;28;20205;-73
2022/01/13 05:53:08;;;;;;;32.13;13.85;;;;;;;;;;4954418;28;20205;-73
2022/01/13 05:55:38;;;;;;;29.00;13.52;;;;;;;;;;4954627;28;20705;-74
2022/01/13 05:58:07;;;;;;;22.13;12.10;;;;;;;;;;4953075;28;20654;-72
2022/01/13 06:00:35;;;;;;;20.45;11.30;;;;;;;;;;4953653;28;20563;-73
2022/01/13 06:03:13;;;;;;;25.25;12.95;;;;;;;;;;4953124;28;20629;-73
2022/01/13 06:05:47;;;;;;;29.98;13.02;;;;;;;;;;4955321;28;20201;-73
2022/01/13 06:08:19;;;;;;;20.67;10.75;;;;;;;;;;4966809;28;20308;-74
2022/01/13 06:10:48;;;;;;;26.02;13.77;;;;;;;;;;4968513;28;20612;-73
2022/01/13 06:13:17;;;;;;;23.88;11.20;;;;;;;;;;4952782;28;20202;-74
2022/01/13 06:15:46;;;;;;;24.80;11.75;;;;;;;;;;4963781;28;20189;-74
2022/01/13 06:18:16;;;;;;;19.00;10.73;;;;;;;;;;4953041;28;20605;-73
2022/01/13 06:20:52;;;;;;;26.90;11.50;;;;;;;;;;4961288;28;20626;-74
2022/01/13 06:23:21;;;;;;;24.45;11.57;;;;;;;;;;4973227;28;20680;-74
2022/01/13 06:25:49;;;;;;;26.30;12.45;;;;;;;;;;4972230;28;20221;-74
2022/01/13 06:28:20;;;;;;;22.67;11.82;;;;;;;;;;4971973;28;20194;-73
2022/01/13 06:30:47;;;;;;;24.30;12.85;;;;;;;;;;4973477;28;20201;-74
2022/01/13 06:33:15;;;;;;;26.40;12.90;;;;;;;;;;4972040;28;20193;-74
2022/01/13 06:35:46;;;;;;;24.55;12.40;;;;;;;;;;4975895;28;20194;-74
2022/01/13 06:38:19;;;;;;;32.35;12.93;;;;;;;;;;4973612;28;20247;-73
2022/01/13 06:40:54;;;;;;;22.80;11.77;;;;;;;;;;4971941;28;20202;-74
2022/01/13 06:43:22;;;;;;;26.05;12.43;;;;;;;;;;4976439;28;20234;-73
2022/01/13 06:45:50;;;;;;;27.33;14.18;;;;;;;;;;4971891;28;20202;-73
2022/01/13 06:48:23;;;;;;;28.75;13.25;;;;;;;;;;4975684;28;20210;-74
2022/01/13 06:50:52;;;;;;;26.40;12.95;;;;;;;;;;4972665;28;20223;-74
2022/01/13 06:53:20;;;;;;;26.25;14.52;;;;;;;;;;4983964;28;20193;-73
2022/01/13 06:55:50;;;;;;;29.27;13.55;;;;;;;;;;4991490;28;20216;-76
2022/01/13 06:58:20;;;;;;;25.77;11.90;;;;;;;;;;4991951;28;20313;-73
2022/01/13 07:00:47;;;;;;;25.15;13.35;;;;;;;;;;4992955;28;20191;-77
2022/01/13 07:03:16;;;;;;;28.42;13.57;;;;;;;;;;4992593;28;20204;-73
2022/01/13 07:05:43;;;;;;;24.55;12.07;;;;;;;;;;4992826;28;20678;-73
2022/01/13 07:08:11;;;;;;;22.73;13.55;;;;;;;;;;4991799;28;20225;-73
2022/01/13 07:10:50;;;;;;;30.23;13.73;;;;;;;;;;4980180;28;20181;-74
2022/01/13 07:13:19;;;;;;;29.73;13.75;;;;;;;;;;4981394;28;20200;-73
2022/01/13 07:15:47;;;;;;;26.95;13.48;;;;;;;;;;4990978;28;20682;-74
2022/01/13 07:18:15;;;;;;;31.05;15.07;;;;;;;;;;4992597;28;20228;-75
2022/01/13 07:20:46;;;;;;;31.58;15.20;;;;;;;;;;4990095;28;20217;-74
2022/01/13 07:23:13;;;;;;;25.70;13.73;;;;;;;;;;4990773;28;20189;-73
2022/01/13 07:25:41;;;;;;;32.28;16.35;;;;;;;;;;4992750;28;20393;-74
2022/01/13 07:28:10;;;;;;;30.60;14.15;;;;;;;;;;4992575;28;20307;-74
2022/01/13 07:30:39;;;;;;;21.30;11.65;;;;;;;;;;4988553;28;20283;-74
2022/01/13 07:33:06;;;;;;;27.35;12.40;;;;;;;;;;4991077;28;20196;-74
2022/01/13 07:35:43;;;;;;;29.70;14.27;;;;;;;;;;4981477;28;20378;-73
2022/01/13 07:38:53;;;;;;;18.63;10.65;;;;;;;;;;4983515;28;20185;-74
2022/01/13 07:41:53;;;;;;;21.20;13.48;;;;;;;;;;4978610;28;20204;-76
2022/01/13 07:44:30;;;;;;;34.70;13.82;;;;;;;;;;4985955;28;20673;-74
2022/01/13 07:47:00;;;;;;;18.08;10.70;;;;;;;;;;4992055;28;20275;-73
2022/01/13 07:49:37;;;;;;;27.10;13.85;;;;;;;;;;4991985;28;20197;-74
2022/01/13 07:52:09;;;;;;;22.15;12.05;;;;;;;;;;4993800;28;20223;-73
2022/01/13 07:54:42;;;;;;;23.83;12.20;;;;;;;;;;4993370;28;20205;-74
2022/01/13 07:57:10;;;;;;;28.63;13.18;;;;;;;;;;4993901;28;20200;-73
2022/01/13 07:59:40;;;;;;;22.83;11.98;;;;;;;;;;4993891;28;20201;-73
2022/01/13 08:02:11;;;;;;;27.98;15.13;;;;;;;;;;4993863;28;20200;-73
2022/01/13 08:04:38;;;;;;;25.30;12.88;;;;;;;;;;4993663;28;20232;-73
2022/01/13 08:07:06;;;;;;;22.25;11.60;;;;;;;;;;4994065;28;20223;-73
2022/01/13 08:09:38;;;;;;;28.33;12.60;;;;;;;;;;4994515;28;20579;-73
2022/01/13 08:12:06;;;;;;;26.95;14.43;;;;;;;;;;4994394;28;20275;-74
2022/01/13 08:14:39;;;;;;;24.50;13.35;;;;;;;;;;4994391;28;20209;-74
2022/01/13 08:17:17;;;;;;;25.42;14.23;;;;;;;;;;4994351;28;20255;-74
2022/01/13 08:19:49;;;;;;;24.65;12.90;;;;;;;;;;4994089;28;20204;-74
2022/01/13 08:22:18;;;;;;;29.73;14.60;;;;;;;;;;4993729;28;20224;-74
2022/01/13 08:24:48;;;;;;;26.13;12.52;;;;;;;;;;4994129;28;20231;-73
2022/01/13 08:27:21;;;;;;;25.77;15.30;;;;;;;;;;4993605;28;20225;-73
2022/01/13 08:29:53;;;;;;;24.08;13.00;;;;;;;;;;4993475;28;20279;-74
2022/01/13 08:32:35;;;;;;;30.73;14.77;;;;;;;;;;4994038;28;20193;-74
2022/01/13 08:35:08;;;;;;;28.42;13.23;;;;;;;;;;4993697;28;20873;-74
2022/01/13 08:37:36;;;;;;;27.92;12.85;;;;;;;;;;4994174;28;20373;-74
2022/01/13 08:40:08;;;;;;;31.48;14.20;;;;;;;;;;4993593;28;20196;-73
2022/01/13 08:42:41;;;;;;;29.27;14.23;;;;;;;;;;4993872;28;20204;-74
2022/01/13 08:45:12;;;;;;;27.90;13.32;;;;;;;;;;4993685;28;20212;-74
2022/01/13 08:47:45;;;;;;;27.30;13.48;;;;;;;;;;4993531;28;20585;-74
2022/01/13 08:50:14;;;;;;;23.42;13.65;;;;;;;;;;4993760;28;20193;-74
2022/01/13 08:52:48;;;;;;;29.90;16.20;;;;;;;;;;4993472;28;20231;-74
2022/01/13 08:55:17;;;;;;;24.13;13.73;;;;;;;;;;4993537;28;20251;-74
2022/01/13 08:57:45;;;;;;;24.92;14.15;;;;;;;;;;4993363;28;20279;-74
2022/01/13 09:00:13;;;;;;;24.08;15.13;;;;;;;;;;4993436;28;20280;-74
2022/01/13 09:02:44;;;;;;;25.90;14.23;;;;;;;;;;4993286;28;20193;-74
2022/01/13 09:05:28;;;;;;;21.25;13.65;;;;;;;;;;4993454;28;20224;-74
2022/01/13 09:08:00;;;;;;;22.08;12.68;;;;;;;;;;4993315;28;20723;-74
2022/01/13 09:10:28;;;;;;;23.05;14.10;;;;;;;;;;4993205;28;20204;-77
2022/01/13 09:12:55;;;;;;;29.35;13.70;;;;;;;;;;4993479;28;20203;-74
2022/01/13 09:15:32;;;;;;;27.00;14.32;;;;;;;;;;4992705;28;20203;-74
2022/01/13 09:18:07;;;;;;;26.55;16.15;;;;;;;;;;4993448;28;20197;-74
2022/01/13 09:20:36;;;;;;;29.15;13.95;;;;;;;;;;4993350;28;20216;-73
2022/01/13 09:23:03;;;;;;;25.05;15.00;;;;;;;;;;4993416;28;20208;-74
2022/01/13 09:25:39;;;;;;;27.70;15.10;;;;;;;;;;4993112;28;20193;-74
2022/01/13 09:28:07;;;;;;;22.08;14.82;;;;;;;;;;4993571;28;20286;-74
2022/01/13 09:30:35;;;;;;;27.52;14.63;;;;;;;;;;4993147;28;20603;-74
2022/01/13 09:33:03;;;;;;;30.55;15.20;;;;;;;;;;4993232;28;20211;-74
2022/01/13 09:35:41;;;;;;;33.95;16.60;;;;;;;;;;4993402;28;20188;-74
2022/01/13 09:38:10;;;;;;;27.00;17.58;;;;;;;;;;4993081;28;20288;-74
2022/01/13 09:40:37;;;;;;;30.63;18.60;;;;;;;;;;4993357;28;20204;-75
2022/01/13 09:43:07;;;;;;;31.83;19.67;;;;;;;;;;4993321;28;20208;-74
2022/01/13 09:45:38;;;;;;;28.38;17.00;;;;;;;;;;4993453;28;20678;-74
2022/01/13 09:48:06;;;;;;;29.25;17.58;;;;;;;;;;4993379;28;20403;-74
2022/01/13 09:50:33;;;;;;;33.78;20.20;;;;;;;;;;4993291;28;20196;-74
2022/01/13 09:53:04;;;;;;;49.88;26.63;;;;;;;;;;4993483;28;20316;-76
2022/01/13 09:55:31;;;;;;;72.43;45.05;;;;;;;;;;4993256;28;20201;-74
2022/01/13 09:58:02;;;;;;;28.92;18.30;;;;;;;;;;4993312;28;20193;-74
2022/01/13 10:00:29;;;;;;;72.43;40.22;;;;;;;;;;4993364;28;20197;-74
2022/01/13 10:03:10;;;;;;;23.92;15.73;;;;;;;;;;4993332;28;20204;-74
2022/01/13 10:05:47;;;;;;;22.52;14.13;;;;;;;;;;4992979;28;20204;-74
2022/01/13 10:08:21;;;;;;;24.85;15.23;;;;;;;;;;4993127;28;20224;-74
2022/01/13 10:10:49;;;;;;;21.40;12.88;;;;;;;;;;4988358;28;20267;-75
2022/01/13 10:13:29;;;;;;;22.45;13.25;;;;;;;;;;4992546;28;20220;-74
2022/01/13 10:18:48;;;;;;;21.52;13.18;;;;;;;;;;4993302;28;20195;-74
2022/01/13 10:21:17;;;;;;;22.88;14.68;;;;;;;;;;4992501;28;20220;-74
2022/01/13 10:24:02;;;;;;;21.70;13.35;;;;;;;;;;4992922;28;20726;-75
2022/01/13 10:26:31;;;;;;;25.77;15.55;;;;;;;;;;4976859;28;20204;-74
2022/01/13 10:28:59;;;;;;;20.60;13.60;;;;;;;;;;4996631;28;20567;-75
2022/01/13 10:31:42;;;;;;;19.25;13.55;;;;;;;;;;4996562;28;20267;-75
2022/01/13 10:34:17;;;;;;;20.55;12.38;;;;;;;;;;4996749;28;20251;-74
2022/01/13 10:36:59;;;;;;;21.35;13.02;;;;;;;;;;4996480;28;20188;-74
2022/01/13 10:39:44;;;;;;;26.85;16.88;;;;;;;;;;4996284;28;20303;-74
2022/01/13 10:42:33;;;;;;;26.52;20.33;;;;;;;;;;4996068;28;20196;-74
2022/01/13 10:45:01;;;;;;;34.75;25.30;;;;;;;;;;4995763;28;20204;-74
2022/01/13 10:47:38;;;;;;;28.83;20.08;;;;;;;;;;4996129;28;20221;-74
2022/01/13 10:50:09;;;;;;;33.95;26.67;;;;;;;;;;4996327;28;20634;-74
2022/01/13 10:52:39;;;;;;;25.85;15.98;;;;;;;;;;4996053;28;20192;-74
2022/01/13 10:55:11;;;;;;;18.80;13.20;;;;;;;;;;4996067;28;20212;-74
2022/01/13 10:57:42;;;;;;;20.30;13.40;;;;;;;;;;4996202;28;20292;-75
2022/01/13 11:00:22;;;;;;;21.08;14.30;;;;;;;;;;4996446;28;20702;-74
2022/01/13 11:02:59;;;;;;;19.77;13.60;;;;;;;;;;4996403;28;20230;-74
2022/01/13 11:05:26;;;;;;;19.10;14.52;;;;;;;;;;4994353;28;20718;-74
2022/01/13 11:07:53;;;;;;;21.02;13.95;;;;;;;;;;4995634;28;20581;-74
2022/01/13 11:10:23;;;;;;;19.77;14.32;;;;;;;;;;4992402;28;20247;-74
2022/01/13 11:13:00;;;;;;;18.65;13.13;;;;;;;;;;4996097;28;20267;-74
2022/01/13 11:15:28;;;;;;;22.00;14.02;;;;;;;;;;4995259;28;20593;-74
2022/01/13 11:17:56;;;;;;;17.67;13.00;;;;;;;;;;4995109;28;20211;-75
2022/01/13 11:20:24;;;;;;;24.63;14.63;;;;;;;;;;4994969;28;20216;-75
2022/01/13 11:22:55;;;;;;;22.92;14.35;;;;;;;;;;4995350;28;20308;-74
2022/01/13 11:25:28;;;;;;;18.50;12.47;;;;;;;;;;4995281;28;20188;-74
2022/01/13 11:27:57;;;;;;;21.57;14.13;;;;;;;;;;4995660;28;21012;-75
2022/01/13 11:30:27;;;;;;;18.80;13.80;;;;;;;;;;4994528;28;20922;-74
2022/01/13 11:32:59;;;;;;;19.52;13.85;;;;;;;;;;4993825;28;20289;-76
2022/01/13 11:35:34;;;;;;;19.60;13.33;;;;;;;;;;4995061;28;20184;-74
2022/01/13 11:38:03;;;;;;;23.63;14.90;;;;;;;;;;4994972;28;20475;-74
2022/01/13 11:40:40;;;;;;;25.00;14.52;;;;;;;;;;4994322;28;20522;-74
2022/01/13 11:43:08;;;;;;;24.83;15.75;;;;;;;;;;4995288;28;20205;-74
2022/01/13 11:45:41;;;;;;;20.98;13.70;;;;;;;;;;4995230;28;20197;-75
2022/01/13 11:48:18;;;;;;;18.23;13.60;;;;;;;;;;4995355;28;20227;-75
2022/01/13 11:50:50;;;;;;;19.03;13.60;;;;;;;;;;4995020;28;20818;-74
2022/01/13 11:53:21;;;;;;;19.03;14.50;;;;;;;;;;4995021;28;20440;-74
2022/01/13 11:55:59;;;;;;;18.87;15.10;;;;;;;;;;4995178;28;20436;-74
2022/01/13 11:58:31;;;;;;;17.37;13.00;;;;;;;;;;4995114;28;20454;-75
2022/01/13 12:01:10;;;;;;;18.10;13.23;;;;;;;;;;4995077;28;20440;-75
2022/01/13 12:03:37;;;;;;;21.03;14.00;;;;;;;;;;4995131;28;20451;-74
2022/01/13 12:06:06;;;;;;;19.33;13.03;;;;;;;;;;4995072;28;20779;-74
2022/01/13 12:08:53;;;;;;;16.50;12.07;;;;;;;;;;4994712;28;20499;-74
2022/01/13 12:11:41;;;;;;;16.90;11.70;;;;;;;;;;4995135;28;20487;-75
2022/01/13 12:14:28;;;;;;;14.73;11.23;;;;;;;;;;4994922;28;20440;-74
2022/01/13 12:16:59;;;;;;;18.27;11.83;;;;;;;;;;4994671;28;20475;-74
2022/01/13 12:19:32;;;;;;;17.13;11.37;;;;;;;;;;4994816;28;20439;-74
2022/01/13 12:22:04;;;;;;;17.43;12.47;;;;;;;;;;4994419;28;20468;-74
2022/01/13 12:24:45;;;;;;;17.20;11.87;;;;;;;;;;4994668;28;20450;-74
2022/01/13 12:27:13;;;;;;;17.27;11.13;;;;;;;;;;4994682;28;20447;-74
2022/01/13 12:29:45;;;;;;;17.80;11.30;;;;;;;;;;4994557;28;20495;-75
2022/01/13 12:32:14;;;;;;;14.00;11.47;;;;;;;;;;4994446;28;20919;-74
2022/01/13 12:34:50;;;;;;;20.60;11.88;;;3.30;57.40;;;;;;4994514;28;20440;-74
2022/01/13 12:37:28;;;;;;;14.73;11.88;;;14.00;29.00;;;;;;4994437;28;20204;-74
2022/01/13 12:40:03;;;;;;;18.38;11.32;;;13.60;29.00;;;;;;4994526;28;20192;-75
2022/01/13 12:42:36;;;;;;;16.50;11.23;;;13.30;30.00;;;;;;4994461;28;20192;-74
2022/01/13 12:47:51;;;;;;;15.23;10.63;;;13.40;30.90;;;;;;4994374;28;20191;-74
2022/01/13 12:50:25;;;;;;;15.70;11.13;;;13.50;29.90;;;;;;4994252;28;20193;-75
2022/01/13 12:52:52;;;;;;;16.65;11.30;;;13.40;29.90;;;;;;4994214;28;20193;-74
2022/01/13 12:55:20;;;;;;;16.25;10.55;;;13.00;30.50;;;;;;4994158;28;20193;-74
2022/01/13 12:57:50;;;;;;;13.60;9.82;;;12.50;30.80;;;;;;4994173;28;20256;-74
2022/01/13 13:00:22;;;;;;;17.42;11.95;;;12.30;31.90;;;;;;4994121;28;20251;-74
2022/01/13 13:03:05;;;;;;;13.45;9.35;;;12.40;32.20;;;;;;4994108;28;20266;-74
2022/01/13 13:05:45;;;;;;;15.68;10.10;;;12.50;31.60;;;;;;4994167;28;20236;-74
2022/01/13 13:08:15;;;;;;;14.80;9.70;;;12.40;31.80;;;;;;4993725;28;20220;-74
2022/01/13 13:10:48;;;;;;;18.08;9.73;;;12.10;31.90;;;;;;4993928;28;20255;-74
2022/01/13 13:13:18;;;;;;;18.48;9.40;;;12.10;33.00;;;;;;4993984;28;20563;-75
2022/01/13 13:15:54;;;;;;;17.65;11.60;;;12.00;33.30;;;;;;4993745;28;20563;-74
2022/01/13 13:18:26;;;;;;;16.60;11.02;;;12.00;33.90;;;;;;4993964;28;20196;-75
2022/01/13 13:21:04;;;;;;;13.50;10.25;;;12.00;33.90;;;;;;4993567;28;20228;-75
2022/01/13 13:23:34;;;;;;;18.42;11.23;;;12.00;34.00;;;;;;4993935;28;20204;-75
2022/01/13 13:26:08;;;;;;;16.98;10.13;;;12.00;34.10;;;;;;4993707;28;20303;-74
2022/01/13 13:28:39;;;;;;;14.48;9.95;;;12.10;34.00;;;;;;4993756;28;20683;-75
2022/01/13 13:31:11;;;;;;;16.73;10.45;;;12.00;33.40;;;;;;4993759;28;20193;-76
2022/01/13 13:33:46;;;;;;;13.35;9.52;;;11.50;34.00;;;;;;4993879;28;20192;-74
2022/01/13 13:36:15;;;;;;;16.80;11.13;;;11.50;34.40;;;;;;4993800;28;20204;-74
2022/01/13 13:39:00;;;;;;;18.75;11.95;;;11.50;34.30;;;;;;4993665;28;20267;-74
2022/01/13 13:41:29;;;;;;;16.40;11.18;;;11.50;34.80;;;;;;4993636;28;20197;-75
2022/01/13 13:43:57;;;;;;;17.73;10.43;;;11.20;34.90;;;;;;4993653;28;20196;-75
2022/01/13 13:46:25;;;;;;;16.95;10.93;;;11.00;35.60;;;;;;4993735;28;20283;-74
2022/01/13 13:48:57;;;;;;;16.05;10.32;;;11.00;35.30;;;;;;4993465;28;20220;-74
2022/01/13 13:51:26;;;;;;;15.00;10.40;;;10.70;34.90;;;;;;4993516;28;20197;-74
2022/01/13 13:54:11;;;;;;;14.25;10.07;;;10.50;35.70;;;;;;4993389;28;20215;-74
2022/01/13 13:56:40;;;;;;;14.27;9.45;;;10.30;35.80;;;;;;4993508;28;20189;-74
2022/01/13 13:59:20;;;;;;;17.25;10.82;;;9.70;37.10;;;;;;4993429;28;20200;-74
2022/01/13 14:01:57;;;;;;;18.30;10.32;;;9.50;38.00;;;;;;4994440;28;20563;-74
2022/01/13 14:04:37;;;;;;;16.17;10.60;;;9.50;38.10;;;;;;4997619;28;20536;-74
2022/01/13 14:07:18;;;;;;;18.52;13.23;;;9.20;38.40;;;;;;4997364;28;20196;-74
2022/01/13 14:09:45;;;;;;;15.73;9.80;;;9.10;38.60;;;;;;4996943;28;20256;-74
2022/01/13 14:12:25;;;;;;;16.63;10.02;;;8.80;39.10;;;;;;4997479;28;20595;-75
2022/01/13 14:14:52;;;;;;;17.00;10.55;;;8.60;40.00;;;;;;4997260;28;20224;-74
2022/01/13 14:17:30;;;;;;;21.70;11.30;;;8.40;40.80;;;;;;4997618;28;20189;-74
2022/01/13 14:20:08;;;;;;;17.42;11.07;;;8.30;41.40;;;;;;4997050;28;20618;-74
2022/01/13 14:22:35;;;;;;;20.60;11.43;;;8.20;41.70;;;;;;4996861;28;20254;-75
2022/01/13 14:25:10;;;;;;;17.17;11.20;;;7.80;42.20;;;;;;4997264;28;20243;-74
2022/01/13 14:27:51;;;;;;;17.65;10.68;;;7.70;42.90;;;;;;4997114;28;20644;-74
2022/01/13 14:30:30;;;;;;;18.48;13.43;;;7.70;43.60;;;;;;4996797;28;20220;-75
2022/01/13 14:33:19;;;;;;;18.48;11.55;;;7.70;43.50;;;;;;4996830;28;20199;-74
2022/01/13 14:36:11;;;;;;;20.98;11.80;;;7.60;43.60;;;;;;4996711;28;20204;-73
2022/01/13 14:38:46;;;;;;;16.80;11.32;;;7.60;43.80;;;;;;4996738;28;20287;-73